• Join FlightAware (Why Join?)
  • Login
  • US Flag 
01:56AM EDT


 

Airport Tracker/Info


-or-


 

Live Flight TrackerFlight Track Log ✈ SWA508 ✈ 19-Apr-2013 ✈ KPHL - KBNA

Flight Track Log - Related Links

Times and Time Zones

All times are in EDT time to prevent confusion due to time zone crossing. See the SWA508 flight status page for this flight to view local times or setup timezone preferences in your user account.

Time Position Orientation Groundspeed Altitude Reporting Facility
EDT Latitude Longitude Course Direction KTS MPH feet Rate Location/Type
03:57PM 39.8622 -75.2925 270° West 154 177 1,600  Level New York Center
03:58PM 39.8578 -75.3083 250° West 191 220 2,700 3,600 Climbing FAA TRACON SMA TRACON (SMA)
03:58PM 39.8561 -75.3325 265° West 185 213 4,200 3,720 Climbing FAA TRACON SMA TRACON (SMA)
03:58PM 39.8547 -75.3544 265° West 199 229 5,200 3,120 Climbing FAA TRACON SMA TRACON (SMA)
03:59PM 39.8561 -75.3844 273° West 241 277 6,300 3,900 Climbing FAA TRACON SMA TRACON (SMA)
03:59PM 39.8619 -75.4122 285° West 244 281 7,800 4,020 Climbing FAA TRACON SMA TRACON (SMA)
03:59PM 39.8672 -75.4375 285° West 239 275 9,000 2,160 Climbing FAA TRACON SMA TRACON (SMA)
04:00PM 39.8825 -75.4994 288° West 288 331 10,000 960 Climbing FAA TRACON SMA TRACON (SMA)
04:00PM 39.8944 -75.5311 296° West 305 351 10,000  Level FAA TRACON SMA TRACON (SMA)
04:01PM 39.9089 -75.5686 297° West 318 366 10,000 1,200 Level FAA TRACON SMA TRACON (SMA)
04:01PM 39.9211 -75.6042 294° West 323 372 10,800 2,820 Climbing FAA TRACON SMA TRACON (SMA)
04:01PM 39.9331 -75.6375 295° West 326 375 11,900 3,000 Climbing FAA TRACON SMA TRACON (SMA)
04:02PM 39.9461 -75.6778 293° West 334 384 12,800 2,820 Climbing FAA TRACON SMA TRACON (SMA)
04:02PM 39.9508 -75.7189 279° West 342 394 13,800 3,120 Climbing FAA TRACON SMA TRACON (SMA)
04:02PM 39.9511 -75.7583 271° West 343 395 14,900 3,360 Climbing FAA TRACON SMA TRACON (SMA)
04:03PM 39.9001 -75.9013 270° West  Level FlightAware Approximate
04:03PM 39.9506 -75.7967 269° West 344 396 16,000  Level FAA TRACON SMA TRACON (SMA)
04:03PM 39.9494 -75.8453 268° West 347 399 17,300 3,300 Climbing FAA TRACON SMA TRACON (SMA)
04:03PM 39.9492 -75.8747 269° West 349 402 18,200 1,320 Climbing FAA TRACON SMA TRACON (SMA)
04:04PM 39.9492 -75.8747 207° Southwest 349 402 18,200  Level FAA TRACON SMA TRACON (SMA)
04:04PM 39.9492 -75.8747 207° Southwest 349 402 18,200 1,800 Level FAA TRACON SMA TRACON (SMA)
04:06PM 39.8647 -76.2611 254° West 370 426 23,000 1,860 Climbing New York Center
04:07PM 39.8278 -76.3853 249° West 375 432 24,500 1,620 Climbing New York Center
04:08PM 39.7903 -76.5147 249° West 387 445 26,300 1,680 Climbing New York Center
04:09PM 39.7503 -76.6492 249° West 387 445 28,000 1,620 Climbing New York Center
04:10PM 39.7097 -76.7889 249° West 398 458 29,600 1,860 Climbing New York Center
04:11PM 39.6858 -76.9300 258° West 405 466 31,800 2,160 Climbing New York Center
04:12PM 39.7008 -77.0797 277° West 399 459 34,000 1,620 Climbing New York Center
04:13PM 39.7017 -77.1342 271° West 416 479 34,000  Level Washington Center
04:14PM 39.7144 -77.2667 277° West 409 471 34,000 600 Level Washington Center
04:15PM 39.7372 -77.4317 280° West 414 476 35,200 1,620 Climbing Washington Center
04:16PM 39.7103 -77.5578 255° West 376 433 37,300 1,860 Climbing Washington Center
04:17PM 39.6667 -77.6753 244° Southwest 358 412 39,000 1,320 Climbing Washington Center
04:18PM 39.6269 -77.7872 245° Southwest 358 412 40,000 480 Climbing Washington Center
04:19PM 39.5811 -77.8989 242° Southwest 353 406 40,000  Level Washington Center
04:20PM 39.5372 -78.0133 244° Southwest 358 412 40,000  Level Washington Center
04:21PM 39.4933 -78.1247 243° Southwest 358 412 40,000  Level Washington Center
04:22PM 39.4492 -78.2361 243° Southwest 358 412 40,000  Level Washington Center
04:23PM 39.4072 -78.3475 244° Southwest 358 412 40,000  Level Washington Center
04:24PM 39.3628 -78.4611 243° Southwest 358 412 40,000  Level Washington Center
04:25PM 39.3186 -78.5667 242° Southwest 358 412 40,000  Level Washington Center
04:26PM 39.2761 -78.6750 243° Southwest 352 405 40,000  Level Washington Center
04:27PM 39.2339 -78.7831 243° Southwest 342 394 40,000  Level Washington Center
04:28PM 39.1914 -78.8911 243° Southwest 342 394 40,000  Level Washington Center
04:29PM 39.1464 -79.0014 242° Southwest 342 394 40,000  Level Washington Center
04:30PM 39.1039 -79.1092 243° Southwest 342 394 40,000  Level Washington Center
04:31PM 39.0608 -79.2192 243° Southwest 342 394 40,000  Level Washington Center
04:32PM 39.0161 -79.3214 241° Southwest 342 394 40,000  Level Washington Center
04:33PM 38.9731 -79.4286 243° Southwest 342 394 40,000  Level Washington Center
04:34PM 38.9300 -79.5331 242° Southwest 342 394 40,000  Level Washington Center
04:35PM 38.8914 -79.6322 243° Southwest 348 400 40,000  Level Washington Center
04:36PM 38.8483 -79.7367 242° Southwest 348 400 40,000  Level Washington Center
04:37PM 38.8069 -79.8408 243° Southwest 336 387 40,000  Level Washington Center
04:38PM 38.7658 -79.9422 243° Southwest 331 381 40,000  Level Washington Center
04:39PM 38.7158 -80.0564 241° Southwest 331 381 40,000  Level Washington Center
04:40PM 38.6744 -80.1603 243° Southwest 331 381 40,000  Level Washington Center
04:40PM 38.6603 -80.1856 234° Southwest 331 381 40,000  Level Indianapolis Center
04:41PM 38.6369 -80.3014 256° West 337 388 40,000  Level Indianapolis Center
04:42PM 38.6150 -80.4178 256° West 336 387 40,000  Level Indianapolis Center
04:43PM 38.5928 -80.5347 256° West 338 389 40,000  Level Indianapolis Center
04:44PM 38.5700 -80.6514 256° West 338 389 40,000  Level Indianapolis Center
04:45PM 38.5478 -80.7703 257° West 340 391 40,000  Level Indianapolis Center
04:46PM 38.5256 -80.8883 257° West 341 392 40,000  Level Indianapolis Center
04:47PM 38.4975 -81.0303 256° West 343 395 40,000  Level Indianapolis Center
04:48PM 38.4742 -81.1472 256° West 340 391 40,000  Level Indianapolis Center
04:49PM 38.4506 -81.2650 256° West 339 390 40,000  Level Indianapolis Center
04:50PM 38.4267 -81.3828 256° West 340 391 40,000  Level Indianapolis Center
04:51PM 38.4039 -81.5031 256° West 344 396 40,000  Level Indianapolis Center
04:52PM 38.3806 -81.6214 256° West 342 394 40,000  Level Indianapolis Center
04:53PM 38.3564 -81.7392 255° West 341 392 40,000  Level Indianapolis Center
04:54PM 38.3261 -81.8531 251° West 340 391 40,000  Level Indianapolis Center
04:55PM 38.2947 -81.9667 251° West 339 390 40,000  Level Indianapolis Center
04:56PM 38.2622 -82.0803 250° West 340 391 40,000  Level Indianapolis Center
04:57PM 38.2256 -82.2150 251° West 336 387 40,000  Level Indianapolis Center
04:59PM 38.1933 -82.3267 250° West 336 387 40,000  Level Indianapolis Center
05:00PM 38.1622 -82.4342 250° West 326 375 40,000  Level Indianapolis Center
05:01PM 38.1292 -82.5481 250° West 327 376 40,000  Level Indianapolis Center
05:02PM 38.0989 -82.6547 250° West 322 371 40,000  Level Indianapolis Center
05:03PM 38.0675 -82.7619 250° West 324 373 40,000  Level Indianapolis Center
05:04PM 38.0364 -82.8708 250° West 328 377 40,000  Level Indianapolis Center
05:05PM 37.9994 -82.9975 250° West 329 379 40,000  Level Indianapolis Center
05:06PM 37.9675 -83.1067 250° West 329 379 40,000  Level Indianapolis Center
05:07PM 37.9350 -83.2158 249° West 332 382 40,000 -540 Level Indianapolis Center
05:08PM 37.9028 -83.3256 250° West 333 383 39,000 -960 Descending Indianapolis Center
05:09PM 37.8700 -83.4383 250° West 340 391 38,100 -900 Descending Indianapolis Center
05:10PM 37.8375 -83.5494 250° West 339 390 37,200 -1,020 Descending Indianapolis Center
05:11PM 37.7989 -83.6778 249° West 337 388 36,100 -1,080 Descending Indianapolis Center
05:12PM 37.7650 -83.7892 249° West 339 390 35,100 -960 Descending Indianapolis Center
05:13PM 37.7331 -83.8958 249° West 326 375 34,200 -960 Descending Indianapolis Center
05:14PM 37.6997 -84.0039 249° West 330 380 33,200 -1,020 Descending Indianapolis Center
05:15PM 37.6672 -84.1125 249° West 332 382 32,200 -600 Descending Indianapolis Center
05:16PM 37.6181 -84.2003 235° Southwest 304 350 32,000 -120 Descending Indianapolis Center
05:17PM 37.5456 -84.2858 223° Southwest 305 351 32,000  Level Indianapolis Center
05:18PM 37.4878 -84.3672 228° Southwest 309 356 32,000  Level Indianapolis Center
05:19PM 37.4317 -84.4486 229° Southwest 309 356 32,000  Level Indianapolis Center
05:20PM 37.3733 -84.5308 228° Southwest 314 361 32,000  Level Indianapolis Center
05:21PM 37.3144 -84.6142 228° Southwest 318 366 32,000  Level Indianapolis Center
05:22PM 37.2558 -84.6969 228° Southwest 317 365 32,000  Level Indianapolis Center
05:23PM 37.1969 -84.7814 229° Southwest 319 367 32,000 -120 Level Indianapolis Center
05:24PM 37.1283 -84.8772 228° Southwest 317 365 31,800 -660 Descending Indianapolis Center
05:25PM 37.0703 -84.9583 228° Southwest 315 362 30,700 -1,020 Descending Indianapolis Center
05:26PM 37.0119 -85.0389 228° Southwest 306 352 29,700 -1,020 Descending Indianapolis Center
05:27PM 36.9567 -85.1181 229° Southwest 303 349 28,700 -1,020 Descending Indianapolis Center
05:28PM 36.9003 -85.1944 227° Southwest 301 346 27,700 -1,020 Descending Indianapolis Center
05:29PM 36.8467 -85.2700 228° Southwest 294 338 26,700 -1,500 Descending Indianapolis Center
05:30PM 36.7939 -85.3433 228° Southwest 286 329 24,700 -1,860 Descending Indianapolis Center
05:31PM 36.7447 -85.4119 228° Southwest 270 311 23,000 -1,200 Descending Indianapolis Center
05:32PM 36.7264 -85.4461 236° Southwest 288 331 23,000  Level Memphis Center
05:33PM 36.6919 -85.5286 243° Southwest 270 311 23,000 -720 Level Memphis Center
05:34PM 36.6511 -85.6058 237° Southwest 270 311 21,600 -1,680 Descending Memphis Center
05:35PM 36.6164 -85.6803 240° Southwest 264 304 19,700 -1,980 Descending Memphis Center
05:36PM 36.5797 -85.7575 239° Southwest 259 298 17,700 -2,100 Descending Memphis Center
05:37PM 36.5414 -85.8447 241° Southwest 259 298 15,600 -2,100 Descending Memphis Center
05:38PM 36.5025 -85.9269 240° Southwest 272 313 13,500 -2,100 Descending Memphis Center
05:39PM 36.4639 -86.0092 240° Southwest 283 326 11,500 -1,680 Descending Memphis Center
05:40PM 36.4250 -86.0886 239° Southwest 278 320 10,200 -1,320 Descending Memphis Center
05:41PM 36.3900 -86.1625 240° Southwest 266 306 8,900 -1,380 Descending Memphis Center
05:42PM 36.3611 -86.2364 244° Southwest 250 288 7,500 -1,440 Descending Memphis Center
05:43PM 36.3322 -86.3100 244° Southwest 242 278 6,100 -1,260 Descending Memphis Center
05:44PM 36.3050 -86.3731 242° Southwest 242 278 5,000 -960 Descending Memphis Center
05:45PM 36.2783 -86.4489 246° West 242 278 4,200 -540 Descending Memphis Center
05:46PM 36.2531 -86.5094 243° Southwest 221 254 4,000 -300 Descending Memphis Center
05:47PM 36.2336 -86.5567 243° Southwest 182 209 3,600 -720 Descending Memphis Center
05:48PM 36.2183 -86.5986 246° West 147 169 2,600 -900 Descending Memphis Center
05:49PM 36.1922 -86.6358 229° Southwest 139 160 1,800 -780 Descending Memphis Center
05:50PM 36.1553 -86.6503 198° South 129 148 1,100 -720 Descending Memphis Center
05:52PM 36.1167 -86.6667 287° West  Level FlightAware Approximate
05:59PM 36.1245 -86.6782 287° West  Level Estimated